Latest Weather Forecast - Wednesday 14th October 2020 (6 am)

Forecast Period: 

 6 am 14th October 2020 to 12:00 pm 14th October 2020 

Synopsis:

A tropical wave will be affecting the islands

Forecast:

Partly cloudy to cloudy with scattered moderate showers and chance of

Thunderstorms  

  Weather        Advisory:

A flash-flood watch remains in effect. Residents and motorist in areas prone to flooding, and near rivers and streams are advised to be prepared..

Winds:

Generally from the ESE at 5 km/h – 15 km/h

Sea Conditions:

Slight in open water; with swells (1.0 –  1.5 m)

Marine  Advisory/Warning:

 None
Upcoming Tides:
 High: **** 02:40 pm  
 Low: 9:13 am

09:41 pm

Aviation WX

[Source: ADDS]
METAR
TVSA 220500Z 2206/2306 07005KT 9999 SCT022 TEMPO 2303/2306 5000 SHRA BKN014 TAF
TVSA 220500Z 2206/2306 07005KT 9999 SCT022 TEMPO 2303/2306 5000 SHRA BKN014 =
SR / SS: 09:56 / 21:41 UTC (Sunrise Sunset 2020-10-22)